createdAt,value
2018-06-02T00:00:26.833Z,18.70
2018-06-02T00:02:54.277Z,18.70
2018-06-02T00:22:39.004Z,18.00
2018-06-02T00:25:06.500Z,17.90
2018-06-02T00:27:33.934Z,17.70
2018-06-02T00:30:01.423Z,17.60
2018-06-02T00:32:28.874Z,17.60
2018-06-02T00:34:56.352Z,17.60
2018-06-02T00:37:23.795Z,17.60
2018-06-02T00:39:51.249Z,17.70
2018-06-02T00:42:18.682Z,17.90
2018-06-02T00:44:46.161Z,18.10
2018-06-02T00:47:13.609Z,18.10
2018-06-02T00:49:41.061Z,18.10
2018-06-02T00:52:08.532Z,18.10
2018-06-02T00:54:47.724Z,17.80
2018-06-02T00:57:15.169Z,17.80
2018-06-02T00:59:42.628Z,17.90
2018-06-02T01:02:10.066Z,17.90
2018-06-02T01:04:37.577Z,17.90
2018-06-02T01:07:05.005Z,17.80
2018-06-02T01:09:32.443Z,17.70
2018-06-02T01:11:59.897Z,17.50
2018-06-02T01:14:27.355Z,17.40
2018-06-02T01:16:54.815Z,17.40
2018-06-02T01:19:22.262Z,17.40
2018-06-02T01:21:49.728Z,17.40
2018-06-02T01:24:17.171Z,17.40
2018-06-02T01:26:44.635Z,17.50
2018-06-02T01:29:12.099Z,17.70
2018-06-02T01:31:39.546Z,17.80
2018-06-02T01:34:07.016Z,17.80
2018-06-02T01:53:52.848Z,17.20
2018-06-02T01:56:20.306Z,17.10
2018-06-02T01:58:47.752Z,16.90
2018-06-02T02:01:15.214Z,16.80
2018-06-02T02:03:42.665Z,16.70
2018-06-02T02:06:10.142Z,16.60
2018-06-02T02:08:37.592Z,16.80
2018-06-02T02:11:05.047Z,16.70
2018-06-02T02:13:33.275Z,16.90
2018-06-02T02:16:00.714Z,16.90
2018-06-02T02:18:28.165Z,16.90
2018-06-02T02:20:55.811Z,17.00
2018-06-02T02:23:23.330Z,17.10
2018-06-02T02:25:50.797Z,17.00
2018-06-02T02:28:18.248Z,17.00
2018-06-02T02:30:45.704Z,17.00
2018-06-02T02:33:13.173Z,17.00
2018-06-02T02:35:40.641Z,17.00
2018-06-02T02:38:08.107Z,16.90
2018-06-02T02:40:35.560Z,16.90
2018-06-02T02:43:03.038Z,17.00
2018-06-02T02:45:30.495Z,17.00
2018-06-02T02:47:57.949Z,17.10
2018-06-02T02:50:25.416Z,17.20
2018-06-02T02:52:52.891Z,17.20
2018-06-02T02:55:21.206Z,17.20
2018-06-02T02:57:49.419Z,17.20
2018-06-02T03:00:16.903Z,17.20
2018-06-02T03:02:44.364Z,17.20
2018-06-02T03:05:11.827Z,17.30
2018-06-02T03:07:39.288Z,17.20
2018-06-02T03:10:06.750Z,17.10
2018-06-02T03:12:34.201Z,17.10
2018-06-02T03:15:01.652Z,17.20
2018-06-02T03:17:29.123Z,17.10
2018-06-02T03:19:56.610Z,17.00
2018-06-02T03:22:24.039Z,17.00
2018-06-02T03:24:51.483Z,17.10
2018-06-02T03:27:18.935Z,17.10
2018-06-02T03:29:47.164Z,17.00
2018-06-02T03:32:14.610Z,17.00
2018-06-02T03:34:42.084Z,17.00
2018-06-02T03:37:09.532Z,17.00
2018-06-02T03:39:37.014Z,17.10
2018-06-02T03:42:04.467Z,17.00
2018-06-02T03:44:31.925Z,17.00
2018-06-02T03:46:59.415Z,17.00
2018-06-02T03:49:26.873Z,17.10
2018-06-02T03:51:54.326Z,17.10
2018-06-02T03:54:21.791Z,17.10
2018-06-02T03:56:49.251Z,17.20
2018-06-02T03:59:16.724Z,17.10
2018-06-02T04:01:44.176Z,17.00
2018-06-02T04:04:11.638Z,17.00
2018-06-02T04:06:39.090Z,16.90
2018-06-02T04:09:06.568Z,16.80
2018-06-02T04:11:34.006Z,16.80
2018-06-02T04:14:01.474Z,16.90
2018-06-02T04:16:28.912Z,17.00
2018-06-02T04:18:56.421Z,17.00
2018-06-02T04:21:23.853Z,17.10
2018-06-02T04:23:51.324Z,17.10
2018-06-02T04:26:18.790Z,17.10
2018-06-02T04:28:46.301Z,17.10
2018-06-02T04:31:13.751Z,17.10
2018-06-02T04:33:41.195Z,17.00
2018-06-02T04:36:08.651Z,17.00
2018-06-02T04:38:36.111Z,17.00
2018-06-02T04:41:03.604Z,17.00
2018-06-02T04:43:31.048Z,17.00
2018-06-02T04:45:58.502Z,17.10
2018-06-02T04:48:25.968Z,17.10
2018-06-02T04:50:53.422Z,17.20
2018-06-02T04:53:20.871Z,17.30
2018-06-02T04:55:48.347Z,17.30
2018-06-02T04:58:15.798Z,17.40
2018-06-02T05:00:43.256Z,17.40
2018-06-02T05:03:10.712Z,17.50
2018-06-02T05:05:38.165Z,17.60
2018-06-02T05:08:05.660Z,17.70
2018-06-02T05:10:33.131Z,17.80
2018-06-02T05:13:00.591Z,17.90
2018-06-02T05:15:28.063Z,17.80
2018-06-02T05:17:55.504Z,17.80
2018-06-02T05:20:25.244Z,17.90
2018-06-02T05:22:52.752Z,17.90
2018-06-02T05:25:21.014Z,17.90
2018-06-02T05:27:49.224Z,17.90
2018-06-02T05:30:16.696Z,17.90
2018-06-02T05:32:44.157Z,17.90
2018-06-02T05:35:11.630Z,18.00
2018-06-02T05:37:39.101Z,18.00
2018-06-02T05:40:06.571Z,18.00
2018-06-02T05:42:34.052Z,18.00
2018-06-02T05:45:01.510Z,18.00
2018-06-02T05:47:28.968Z,18.10
2018-06-02T05:49:56.412Z,18.20
2018-06-02T05:52:23.884Z,18.20
2018-06-02T05:54:51.338Z,18.30
2018-06-02T05:57:18.803Z,18.30
2018-06-02T05:59:46.265Z,18.30
2018-06-02T06:02:13.726Z,18.40
2018-06-02T06:04:41.178Z,18.40
2018-06-02T06:07:09.420Z,18.70
2018-06-02T06:09:37.638Z,18.80
2018-06-02T06:12:05.127Z,18.70
2018-06-02T06:14:32.590Z,18.80
2018-06-02T06:17:00.057Z,18.90
2018-06-02T06:19:27.510Z,18.90
2018-06-02T06:21:54.961Z,19.00
2018-06-02T06:24:22.413Z,19.00
2018-06-02T06:26:49.899Z,19.00
2018-06-02T06:29:17.320Z,19.10
2018-06-02T06:31:44.773Z,19.10
2018-06-02T06:34:12.224Z,19.30
2018-06-02T06:36:39.690Z,19.20
2018-06-02T06:39:07.972Z,19.40
2018-06-02T06:41:35.375Z,19.40
2018-06-02T06:44:02.829Z,19.50
2018-06-02T06:46:30.288Z,19.50
2018-06-02T06:48:57.737Z,19.50
2018-06-02T06:51:25.238Z,19.40
2018-06-02T06:53:52.743Z,19.50
2018-06-02T06:56:20.956Z,19.60
2018-06-02T06:58:48.407Z,19.60
2018-06-02T07:01:16.757Z,19.60
2018-06-02T07:03:45.009Z,19.70
2018-06-02T07:06:12.507Z,19.70
2018-06-02T07:08:40.724Z,19.80
2018-06-02T07:11:08.176Z,19.80
2018-06-02T07:13:35.628Z,20.00
2018-06-02T07:16:03.079Z,20.00
2018-06-02T07:18:31.324Z,20.10
2018-06-02T07:20:58.782Z,20.10
2018-06-02T07:23:26.252Z,20.20
2018-06-02T07:25:53.773Z,20.20
2018-06-02T07:28:21.221Z,20.30
2018-06-02T07:30:48.785Z,20.20
2018-06-02T07:33:16.249Z,20.20
2018-06-02T07:35:43.756Z,20.30
2018-06-02T07:38:11.213Z,20.30
2018-06-02T07:40:38.768Z,20.20
2018-06-02T07:43:06.234Z,20.20
2018-06-02T07:45:33.694Z,20.20
2018-06-02T07:48:01.159Z,20.10
2018-06-02T07:50:28.920Z,20.10
2018-06-02T07:52:56.388Z,20.10
2018-06-02T07:55:23.833Z,20.10
2018-06-02T07:57:51.317Z,20.10
2018-06-02T08:00:18.752Z,20.10
2018-06-02T08:02:46.204Z,20.10
2018-06-02T08:05:13.738Z,20.20
2018-06-02T08:07:41.241Z,20.20
2018-06-02T08:10:08.701Z,20.20
2018-06-02T08:12:36.153Z,20.20
2018-06-02T08:15:03.611Z,20.30
2018-06-02T08:17:31.061Z,20.30
2018-06-02T08:19:59.291Z,20.50
2018-06-02T08:22:26.732Z,20.50
2018-06-02T08:24:54.198Z,20.60
2018-06-02T08:27:21.695Z,20.60
2018-06-02T08:29:49.148Z,20.60
2018-06-02T08:32:17.512Z,20.80
2018-06-02T08:34:44.968Z,20.80
2018-06-02T08:37:12.411Z,20.90
2018-06-02T08:39:39.874Z,21.00
2018-06-02T08:42:08.109Z,21.30
2018-06-02T08:44:35.554Z,21.30
2018-06-02T08:47:03.008Z,21.50
2018-06-02T08:49:30.468Z,21.60
2018-06-02T08:52:01.245Z,21.60
2018-06-02T08:54:28.838Z,21.50
2018-06-02T08:56:57.078Z,21.70
2018-06-02T08:59:24.540Z,21.70
2018-06-02T09:01:51.988Z,21.90
2018-06-02T09:04:19.463Z,22.20
2018-06-02T09:06:46.921Z,22.20
2018-06-02T09:09:14.396Z,21.90
2018-06-02T09:11:41.853Z,21.70
2018-06-02T09:14:09.326Z,21.80
2018-06-02T09:16:36.789Z,21.90
2018-06-02T09:19:04.234Z,21.80
2018-06-02T09:21:31.694Z,21.90
2018-06-02T09:23:59.152Z,22.00
2018-06-02T09:26:26.616Z,22.10
2018-06-02T09:28:54.066Z,22.30
2018-06-02T09:31:21.547Z,22.50
2018-06-02T09:33:49.005Z,22.50
2018-06-02T09:36:16.471Z,22.50
2018-06-02T09:38:43.923Z,22.30
2018-06-02T09:41:11.385Z,22.40
2018-06-02T09:43:38.851Z,22.40
2018-06-02T09:46:06.312Z,22.10
2018-06-02T09:48:33.747Z,22.20
2018-06-02T09:51:01.253Z,21.70
2018-06-02T09:53:28.737Z,21.90
2018-06-02T09:55:56.187Z,21.80
2018-06-02T09:58:23.647Z,21.60
2018-06-02T10:00:51.118Z,21.50
2018-06-02T10:03:18.577Z,21.60
2018-06-02T10:05:46.038Z,21.50
2018-06-02T10:08:13.486Z,21.40
2018-06-02T10:10:40.941Z,21.30
2018-06-02T10:13:08.397Z,21.30
2018-06-02T10:15:35.862Z,21.30
2018-06-02T10:18:03.335Z,21.20
2018-06-02T10:20:30.831Z,21.40
2018-06-02T10:22:58.298Z,21.80
2018-06-02T10:25:26.518Z,21.80
2018-06-02T10:27:53.974Z,21.80
2018-06-02T10:30:21.505Z,21.70
2018-06-02T10:32:49.795Z,21.80
2018-06-02T10:35:17.264Z,21.70
2018-06-02T10:37:45.501Z,21.80
2018-06-02T10:40:12.947Z,21.80
2018-06-02T10:42:40.410Z,21.60
2018-06-02T10:45:07.840Z,21.20
2018-06-02T10:47:35.824Z,21.40
2018-06-02T10:50:03.283Z,21.30
2018-06-02T10:52:30.743Z,21.40
2018-06-02T10:54:58.202Z,21.50
2018-06-02T10:57:27.010Z,21.40
2018-06-02T10:59:54.705Z,21.30
2018-06-02T11:02:22.179Z,21.20
2018-06-02T11:04:49.625Z,21.30
2018-06-02T11:07:17.089Z,21.00
2018-06-02T11:09:44.540Z,21.20
2018-06-02T11:12:12.008Z,21.60
2018-06-02T11:14:39.488Z,21.90
2018-06-02T11:17:06.967Z,22.20
2018-06-02T11:19:34.463Z,22.60
2018-06-02T11:22:01.883Z,22.00
2018-06-02T11:24:29.336Z,22.40
2018-06-02T11:26:56.808Z,22.30
2018-06-02T11:29:24.260Z,22.20
2018-06-02T11:31:51.728Z,22.30
2018-06-02T11:34:19.168Z,22.20
2018-06-02T11:36:46.629Z,22.50
2018-06-02T11:39:14.099Z,22.70
2018-06-02T11:41:41.574Z,22.90
2018-06-02T11:44:09.055Z,23.50
2018-06-02T11:46:36.493Z,23.80
2018-06-02T11:49:03.950Z,23.80
2018-06-02T11:51:31.412Z,23.70
2018-06-02T11:53:58.895Z,24.00
2018-06-02T11:56:26.360Z,24.20
2018-06-02T11:58:54.605Z,23.90
2018-06-02T12:01:22.053Z,23.90
2018-06-02T12:03:49.514Z,23.70
2018-06-02T12:06:16.966Z,24.20
2018-06-02T12:08:44.445Z,23.70
2018-06-02T12:11:11.902Z,23.70
2018-06-02T12:13:40.127Z,24.20
2018-06-02T12:16:07.582Z,24.20
2018-06-02T12:18:35.039Z,23.90
2018-06-02T12:21:02.494Z,24.40
2018-06-02T12:23:29.970Z,24.20
2018-06-02T12:25:57.423Z,24.60
2018-06-02T12:28:24.920Z,24.20
2018-06-02T12:30:52.335Z,24.30
2018-06-02T12:33:19.792Z,23.90
2018-06-02T12:35:47.250Z,23.70
2018-06-02T12:38:14.697Z,23.70
2018-06-02T12:40:42.164Z,23.90
2018-06-02T12:43:09.620Z,24.30
2018-06-02T12:45:37.072Z,24.70
2018-06-02T12:48:04.542Z,25.20
2018-06-02T12:50:32.791Z,25.30
2018-06-02T12:53:00.242Z,25.30
2018-06-02T12:55:27.701Z,25.60
2018-06-02T12:57:55.160Z,25.50
2018-06-02T13:00:22.646Z,24.70
2018-06-02T13:02:50.877Z,24.70
2018-06-02T13:05:18.359Z,24.70
2018-06-02T13:07:45.805Z,24.50
2018-06-02T13:10:13.287Z,24.80
2018-06-02T13:12:40.728Z,25.50
2018-06-02T13:15:08.192Z,25.30
2018-06-02T13:17:35.656Z,24.80
2018-06-02T13:20:03.124Z,24.40
2018-06-02T13:22:30.585Z,24.20
2018-06-02T13:24:58.042Z,24.50
2018-06-02T13:27:25.514Z,24.50
2018-06-02T13:29:52.972Z,24.40
2018-06-02T13:32:20.467Z,24.10
2018-06-02T13:34:47.917Z,24.60
2018-06-02T13:37:15.407Z,25.30
2018-06-02T13:39:43.638Z,25.20
2018-06-02T13:42:11.786Z,25.20
2018-06-02T13:44:39.274Z,26.00
2018-06-02T13:47:06.741Z,26.10
2018-06-02T13:49:34.198Z,25.90
2018-06-02T13:52:01.667Z,26.10
2018-06-02T13:54:29.111Z,26.10
2018-06-02T13:56:56.592Z,25.30
2018-06-02T13:59:24.061Z,25.60
2018-06-02T14:01:52.282Z,25.70
2018-06-02T14:04:20.511Z,26.00
2018-06-02T14:06:47.974Z,26.00
2018-06-02T14:09:15.444Z,26.00
2018-06-02T14:11:42.900Z,25.80
2018-06-02T14:14:10.372Z,26.20
2018-06-02T14:16:37.845Z,26.30
2018-06-02T14:19:05.538Z,25.80
2018-06-02T14:21:33.759Z,25.40
2018-06-02T14:24:01.209Z,25.40
2018-06-02T14:26:28.684Z,25.50
2018-06-02T14:28:56.137Z,25.70
2018-06-02T14:31:23.593Z,26.10
2018-06-02T14:33:51.046Z,25.50
2018-06-02T14:36:18.512Z,25.60
2018-06-02T14:38:45.981Z,26.30
2018-06-02T14:41:13.442Z,25.90
2018-06-02T14:43:40.944Z,25.30
2018-06-02T14:46:08.424Z,24.90
2018-06-02T14:48:35.889Z,24.80
2018-06-02T14:51:03.337Z,24.90
2018-06-02T14:53:30.799Z,25.30
2018-06-02T14:55:58.267Z,24.60
2018-06-02T14:58:25.707Z,24.50
2018-06-02T15:00:53.180Z,25.00
2018-06-02T15:03:20.649Z,25.40
2018-06-02T15:05:48.096Z,25.50
2018-06-02T15:08:15.553Z,25.60
2018-06-02T15:10:42.994Z,26.20
2018-06-02T15:13:10.454Z,26.40
2018-06-02T15:15:37.918Z,25.90
2018-06-02T15:18:05.377Z,25.80
2018-06-02T15:20:32.817Z,25.90
2018-06-02T15:23:01.065Z,25.70
2018-06-02T15:25:28.546Z,25.60
2018-06-02T15:27:56.005Z,26.10
2018-06-02T15:30:23.460Z,26.20
2018-06-02T15:32:50.926Z,26.30
2018-06-02T15:35:18.494Z,26.10
2018-06-02T15:37:46.000Z,26.20
2018-06-02T15:40:13.475Z,26.50
2018-06-02T15:42:41.711Z,26.10
2018-06-02T15:45:09.942Z,26.40
2018-06-02T15:47:37.409Z,26.40
2018-06-02T15:50:04.860Z,26.30
2018-06-02T15:52:32.317Z,26.30
2018-06-02T15:54:59.778Z,26.50
2018-06-02T15:57:27.263Z,26.10
2018-06-02T15:59:54.742Z,26.60
2018-06-02T16:02:22.186Z,26.30
2018-06-02T16:04:49.644Z,26.50
2018-06-02T16:07:17.113Z,27.10
2018-06-02T16:09:44.561Z,26.70
2018-06-02T16:12:12.060Z,27.00
2018-06-02T16:14:39.527Z,26.90
2018-06-02T16:17:06.984Z,26.90
2018-06-02T16:19:34.433Z,26.80
2018-06-02T16:22:01.938Z,26.10
2018-06-02T16:24:29.379Z,26.10
2018-06-02T16:26:56.860Z,25.90
2018-06-02T16:29:25.074Z,25.60
2018-06-02T16:31:52.534Z,25.50
2018-06-02T16:34:20.000Z,25.70
2018-06-02T16:36:47.449Z,25.90
2018-06-02T16:39:15.691Z,25.30
2018-06-02T16:41:43.962Z,24.90
2018-06-02T16:44:11.423Z,24.90
2018-06-02T16:46:38.884Z,24.70
2018-06-02T16:49:06.379Z,25.00
2018-06-02T16:51:34.583Z,25.10
2018-06-02T16:54:02.044Z,25.10
2018-06-02T16:56:29.504Z,25.10
2018-06-02T17:00:02.045Z,25.10
2018-06-02T17:02:30.283Z,25.90
2018-06-02T17:04:58.458Z,26.00
2018-06-02T17:07:26.637Z,25.80
2018-06-02T17:09:55.453Z,25.20
2018-06-02T17:12:23.588Z,25.20
2018-06-02T17:14:51.758Z,25.00
2018-06-02T17:17:20.457Z,25.00
2018-06-02T17:19:48.714Z,25.20
2018-06-02T17:22:41.650Z,25.00
2018-06-02T17:25:09.792Z,24.60
2018-06-02T17:27:49.987Z,24.30
2018-06-02T17:30:55.285Z,24.40
2018-06-02T17:33:23.497Z,24.00
2018-06-02T17:35:51.861Z,24.20
2018-06-02T17:38:20.006Z,24.20
2018-06-02T17:40:48.177Z,24.10
2018-06-02T17:43:16.349Z,24.00
2018-06-02T17:45:44.771Z,24.30
2018-06-02T17:48:12.924Z,24.00
2018-06-02T17:50:41.098Z,24.00
2018-06-02T17:53:09.261Z,24.00
2018-06-02T17:55:37.771Z,24.00
2018-06-02T17:58:08.222Z,23.90
2018-06-02T18:00:36.433Z,23.80
2018-06-02T18:03:04.639Z,23.90
2018-06-02T18:05:33.235Z,23.80
2018-06-02T18:08:06.777Z,23.70
2018-06-02T18:10:35.255Z,23.70
2018-06-02T18:13:07.622Z,23.70
2018-06-02T18:18:43.519Z,23.60
2018-06-02T18:21:22.351Z,23.50
2018-06-02T18:23:50.545Z,23.40
2018-06-02T18:26:18.958Z,23.40
2018-06-02T18:28:47.173Z,23.40
2018-06-02T18:31:15.357Z,23.40
2018-06-02T18:33:43.542Z,23.20
2018-06-02T18:36:11.714Z,23.20
2018-06-02T18:38:39.882Z,23.10
2018-06-02T18:41:08.091Z,23.10
2018-06-02T18:43:36.245Z,23.10
2018-06-02T18:46:04.449Z,23.00
2018-06-02T18:48:32.625Z,23.00
2018-06-02T18:51:00.787Z,23.00
2018-06-02T18:53:28.989Z,23.00
2018-06-02T18:56:10.340Z,22.90
2018-06-02T18:58:40.775Z,22.80
2018-06-02T19:01:08.951Z,22.80
2018-06-02T19:03:37.144Z,22.70
2018-06-02T19:06:09.907Z,22.70
2018-06-02T19:08:39.045Z,22.80
2018-06-02T19:11:14.755Z,22.90
2018-06-02T19:13:43.595Z,22.70
2018-06-02T19:16:11.868Z,22.60
2018-06-02T19:18:40.088Z,22.50
2018-06-02T19:23:51.258Z,22.40
2018-06-02T19:26:19.704Z,22.30
2018-06-02T19:28:47.919Z,22.20
2018-06-02T19:31:17.373Z,22.20
2018-06-02T19:33:46.703Z,22.30
2018-06-02T19:36:15.549Z,22.40
2018-06-02T19:38:44.339Z,22.10
2018-06-02T19:41:13.033Z,21.90
2018-06-02T19:43:41.883Z,21.90
2018-06-02T19:46:11.149Z,21.80
2018-06-02T19:48:40.037Z,21.80
2018-06-02T19:51:09.099Z,21.70
2018-06-02T19:53:37.902Z,21.70
2018-06-02T19:56:06.875Z,21.50
2018-06-02T19:58:35.614Z,21.50
2018-06-02T20:03:32.623Z,21.40
2018-06-02T20:06:01.685Z,21.40
2018-06-02T20:08:30.305Z,21.20
2018-06-02T20:10:58.967Z,21.20
2018-06-02T20:13:27.830Z,21.10
2018-06-02T20:15:56.794Z,21.20
2018-06-02T20:18:25.917Z,21.10
2018-06-02T20:20:55.007Z,21.00
2018-06-02T20:23:23.738Z,20.90
2018-06-02T20:25:52.455Z,21.00
2018-06-02T20:28:20.840Z,21.10
2018-06-02T20:30:50.063Z,21.10
2018-06-02T20:33:27.753Z,20.90
2018-06-02T20:35:56.692Z,20.80
2018-06-02T20:38:26.163Z,20.80
2018-06-02T20:40:55.584Z,20.80
2018-06-02T20:43:25.691Z,20.70
2018-06-02T20:45:55.158Z,20.70
2018-06-02T20:48:27.787Z,20.50
2018-06-02T20:50:58.427Z,20.50
2018-06-02T20:53:30.568Z,20.40
2018-06-02T20:56:01.538Z,20.40
2018-06-02T20:58:30.408Z,20.40
2018-06-02T21:00:59.783Z,20.50
2018-06-02T21:03:28.646Z,20.50
2018-06-02T21:05:58.585Z,20.30
2018-06-02T21:08:28.063Z,20.20
2018-06-02T21:10:57.304Z,20.20
2018-06-02T21:13:26.477Z,20.20
2018-06-02T21:15:55.680Z,20.20
2018-06-02T21:18:26.255Z,20.20
2018-06-02T21:20:55.180Z,20.30
2018-06-02T21:23:24.980Z,20.10
2018-06-02T21:25:54.291Z,20.30
2018-06-02T21:28:24.916Z,20.30
2018-06-02T21:30:54.284Z,20.00
2018-06-02T21:33:23.771Z,19.80
2018-06-02T21:35:53.199Z,19.70
2018-06-02T21:40:52.292Z,19.70
2018-06-02T21:43:21.446Z,19.80
2018-06-02T21:45:50.566Z,19.70
2018-06-02T21:48:20.064Z,19.90
2018-06-02T21:50:49.610Z,19.90
2018-06-02T21:53:18.345Z,20.00
2018-06-02T21:55:47.270Z,19.90
2018-06-02T21:58:16.230Z,19.70
2018-06-02T22:00:45.633Z,19.90
2018-06-02T22:03:15.190Z,20.00
2018-06-02T22:05:44.349Z,19.90
2018-06-02T22:08:13.412Z,19.60
2018-06-02T22:10:42.909Z,19.70
2018-06-02T22:13:11.616Z,19.70
2018-06-02T22:15:41.239Z,19.70
2018-06-02T22:18:10.013Z,19.70
2018-06-02T22:23:07.857Z,19.70
2018-06-02T22:25:36.587Z,19.60
2018-06-02T22:28:05.473Z,19.60
2018-06-02T22:30:34.348Z,19.70
2018-06-02T22:33:03.096Z,19.70
2018-06-02T22:35:33.392Z,19.70
2018-06-02T22:38:02.605Z,19.70
2018-06-02T22:40:31.578Z,19.60
2018-06-02T22:43:01.781Z,19.50
2018-06-02T22:45:31.168Z,19.50
2018-06-02T22:48:00.489Z,19.40
2018-06-02T22:50:29.610Z,19.30
2018-06-02T22:52:59.438Z,19.20
2018-06-02T22:55:28.464Z,19.00
2018-06-02T22:57:57.090Z,19.00
2018-06-02T23:00:26.240Z,19.00
2018-06-02T23:05:23.532Z,18.90
2018-06-02T23:07:53.716Z,19.00
2018-06-02T23:10:23.009Z,18.80
2018-06-02T23:12:52.036Z,18.80
2018-06-02T23:15:20.826Z,18.80
2018-06-02T23:17:50.508Z,18.70
2018-06-02T23:20:20.173Z,18.80
2018-06-02T23:25:17.938Z,18.90
2018-06-02T23:27:46.888Z,18.80
2018-06-02T23:30:15.589Z,18.70
2018-06-02T23:32:44.375Z,18.70
2018-06-02T23:35:15.459Z,18.50
2018-06-02T23:37:44.341Z,18.70
2018-06-02T23:40:13.999Z,18.80
2018-06-02T23:42:43.764Z,18.70
2018-06-02T23:45:12.969Z,18.50
2018-06-02T23:47:42.384Z,18.40
2018-06-02T23:50:12.057Z,18.40
2018-06-02T23:52:41.887Z,18.40
2018-06-02T23:55:10.851Z,18.40
2018-06-02T23:57:40.466Z,18.30
